KACY/ACY METAR and TAF weather

Enter ICAO airport designator
Station Type Date Time Source
KACY METAR 2019/06/20 06:54 UTC NOAA

KACY 200654Z 16003KT 10SM FEW035 BKN060 23/22 A2968 RMK AO2 LTG DSNT N AND NW SLP050 T02280217


Station Type Date Time Source
KACY Decoded METAR 2019/06/20 06:54 UTC NOAA

ATLANTIC CITY INTERNATIONAL, NJ, United States (KACY) 39-28N 74-35W 35M
Jun 20, 2019 - 02:54 AM EDT / 2019.06.20 0654 UTC
Wind: from the SSE (160 degrees) at 3 MPH (3 KT):0
Visibility: 10 mile(s):0
Sky conditions: mostly cloudy
Weather: Lightning observed
Temperature: 73.0 F (22.8 C)
Dew Point: 71.1 F (21.7 C)
Relative Humidity: 93%
Pressure (altimeter): 29.68 in. Hg (1005 hPa)
ob: KACY 200654Z 16003KT 10SM FEW035 BKN060 23/22 A2968 RMK AO2 LTG DSNT N AND NW SLP050 T02280217
cycle: 7

Station Type Date Time Source
KACY TAF 2019/06/20 07:54 UTC NOAA

TAF
AMD KACY 200653Z 2007/2106 VRB03KT P6SM FEW010 BKN080
TEMPO 2008/2010 BKN010
FM201000 VRB03KT P6SM BKN008
FM201300 22007KT P6SM BKN020
FM202000 22009KT 5SM SHRA BR VCTS BKN020CB OVC030
FM210100 22006KT P6SM OVC015

Example: see airport list